createdAt,value
2018-09-17T00:00:25.246Z,101990.72
2018-09-17T00:02:52.990Z,101985.10
2018-09-17T00:05:21.880Z,101987.30
2018-09-17T00:07:50.199Z,101988.38
2018-09-17T00:10:18.516Z,101983.30
2018-09-17T00:12:46.825Z,101982.37
2018-09-17T00:15:15.144Z,101974.22
2018-09-17T00:17:42.889Z,101972.27
2018-09-17T00:20:11.788Z,101971.66
2018-09-17T00:22:39.526Z,101964.39
2018-09-17T00:25:07.841Z,101963.38
2018-09-17T00:27:36.158Z,101963.98
2018-09-17T00:30:06.265Z,101962.36
2018-09-17T00:32:33.380Z,101960.27
2018-09-17T00:35:01.119Z,101961.83
2018-09-17T00:37:29.427Z,101965.67
2018-09-17T00:39:58.321Z,101964.58
2018-09-17T00:42:26.058Z,101960.02
2018-09-17T00:44:54.969Z,101961.27
2018-09-17T00:47:23.280Z,101958.79
2018-09-17T00:49:51.597Z,101959.30
2018-09-17T00:52:20.030Z,101953.87
2018-09-17T00:54:48.359Z,101950.70
2018-09-17T00:57:16.705Z,101948.39
2018-09-17T00:59:44.439Z,101951.76
2018-09-17T01:02:13.330Z,101941.74
2018-09-17T01:04:41.652Z,101938.00
2018-09-17T01:07:09.385Z,101938.28
2018-09-17T01:09:37.706Z,101930.92
2018-09-17T01:12:06.601Z,101927.63
2018-09-17T01:14:34.337Z,101922.66
2018-09-17T01:17:02.653Z,101923.50
2018-09-17T01:19:30.973Z,101923.49
2018-09-17T01:21:59.286Z,101931.06
2018-09-17T01:24:27.604Z,101930.16
2018-09-17T01:26:55.922Z,101931.44
2018-09-17T01:29:24.238Z,101932.08
2018-09-17T01:31:53.124Z,101932.07
2018-09-17T01:34:20.866Z,101928.52
2018-09-17T01:36:49.756Z,101932.61
2018-09-17T01:39:18.076Z,101934.06
2018-09-17T01:41:46.387Z,101932.29
2018-09-17T01:44:14.706Z,101926.81
2018-09-17T01:46:43.017Z,101928.58
2018-09-17T01:49:11.339Z,101922.10
2018-09-17T01:51:39.660Z,101919.80
2018-09-17T01:54:07.402Z,101916.89
2018-09-17T01:56:36.306Z,101912.77
2018-09-17T01:59:04.624Z,101911.97
2018-09-17T02:01:32.931Z,101912.88
2018-09-17T02:04:00.724Z,101917.23
2018-09-17T02:06:29.590Z,101912.63
2018-09-17T02:08:57.345Z,101921.50
2018-09-17T02:11:26.216Z,101912.89
2018-09-17T02:13:54.537Z,101909.33
2018-09-17T02:16:22.853Z,101917.41
2018-09-17T02:18:51.164Z,101908.09
2018-09-17T02:21:18.900Z,101915.69
2018-09-17T02:23:47.701Z,101906.02
2018-09-17T02:26:15.532Z,101903.33
2018-09-17T02:28:43.858Z,101900.77
2018-09-17T02:31:12.165Z,101896.16
2018-09-17T02:33:41.062Z,101901.89
2018-09-17T02:36:08.798Z,101892.12
2018-09-17T02:38:37.693Z,101895.69
2018-09-17T02:41:06.001Z,101896.94
2018-09-17T02:43:33.751Z,101892.91
2018-09-17T02:46:02.651Z,101898.29
2018-09-17T02:48:30.955Z,101897.55
2018-09-17T02:50:58.690Z,101905.31
2018-09-17T02:53:27.657Z,101892.14
2018-09-17T02:55:55.907Z,101894.34
2018-09-17T02:58:24.222Z,101891.81
2018-09-17T03:00:51.983Z,101895.08
2018-09-17T03:03:20.881Z,101890.95
2018-09-17T03:05:48.620Z,101889.79
2018-09-17T03:08:17.520Z,101895.56
2018-09-17T03:10:45.836Z,101891.13
2018-09-17T03:13:13.584Z,101887.02
2018-09-17T03:15:45.168Z,101884.72
2018-09-17T03:18:13.489Z,101883.63
2018-09-17T03:20:41.229Z,101871.91
2018-09-17T03:23:09.550Z,101868.86
2018-09-17T03:25:38.451Z,101864.03
2018-09-17T03:28:06.197Z,101861.12
2018-09-17T03:30:35.128Z,101858.61
2018-09-17T03:33:03.450Z,101857.25
2018-09-17T03:35:31.767Z,101860.33
2018-09-17T03:38:00.084Z,101858.20
2018-09-17T03:40:28.409Z,101865.28
2018-09-17T03:42:56.728Z,101853.79
2018-09-17T03:45:24.463Z,101852.38
2018-09-17T03:47:52.801Z,101854.30
2018-09-17T03:50:21.676Z,101858.08
2018-09-17T03:52:49.993Z,101850.37
2018-09-17T03:55:18.310Z,101846.93
2018-09-17T03:57:46.630Z,101846.25
2018-09-17T04:00:14.381Z,101837.45
2018-09-17T04:02:43.308Z,101838.06
2018-09-17T04:05:11.617Z,101832.91
2018-09-17T04:07:39.477Z,101836.92
2018-09-17T04:10:07.670Z,101835.73
2018-09-17T04:12:35.982Z,101835.56
2018-09-17T04:15:04.874Z,101831.55
2018-09-17T04:17:33.198Z,101837.87
2018-09-17T04:20:01.511Z,101844.54
2018-09-17T04:22:29.841Z,101837.13
2018-09-17T04:24:58.151Z,101830.51
2018-09-17T04:27:26.470Z,101829.22
2018-09-17T04:29:54.209Z,101822.12
2018-09-17T04:32:23.099Z,101827.11
2018-09-17T04:34:51.423Z,101836.63
2018-09-17T04:37:19.752Z,101825.09
2018-09-17T04:39:47.553Z,101836.43
2018-09-17T04:42:16.382Z,101833.00
2018-09-17T04:44:44.136Z,101829.81
2018-09-17T04:47:12.450Z,101822.97
2018-09-17T04:49:41.349Z,101827.53
2018-09-17T04:52:09.688Z,101833.86
2018-09-17T04:54:37.505Z,101821.88
2018-09-17T04:57:06.323Z,101826.52
2018-09-17T04:59:34.637Z,101818.72
2018-09-17T05:02:02.955Z,101816.36
2018-09-17T05:04:31.309Z,101818.94
2018-09-17T05:06:59.046Z,101817.90
2018-09-17T05:09:28.100Z,101814.98
2018-09-17T05:11:56.633Z,101821.14
2018-09-17T05:14:24.965Z,101813.30
2018-09-17T05:16:53.281Z,101820.52
2018-09-17T05:19:21.374Z,101823.19
2018-09-17T05:21:49.936Z,101835.32
2018-09-17T05:24:17.469Z,101835.61
2018-09-17T05:26:46.402Z,101836.05
2018-09-17T05:29:15.796Z,101844.80
2018-09-17T05:31:44.143Z,101845.37
2018-09-17T05:34:11.893Z,101851.05
2018-09-17T05:36:40.810Z,101850.77
2018-09-17T05:39:08.562Z,101850.16
2018-09-17T05:41:36.885Z,101847.65
2018-09-17T05:44:05.790Z,101841.95
2018-09-17T05:46:33.583Z,101845.32
2018-09-17T05:49:02.417Z,101831.27
2018-09-17T05:51:30.755Z,101817.05
2018-09-17T05:53:59.073Z,101807.40
2018-09-17T05:56:27.395Z,101806.68
2018-09-17T05:58:55.140Z,101797.95
2018-09-17T06:01:23.537Z,101790.71
2018-09-17T06:03:52.457Z,101794.03
2018-09-17T06:06:20.803Z,101797.16
2018-09-17T06:08:49.118Z,101793.84
2018-09-17T06:11:16.905Z,101793.86
2018-09-17T06:13:45.773Z,101798.71
2018-09-17T06:16:13.507Z,101804.10
2018-09-17T06:18:41.835Z,101806.48
2018-09-17T06:21:10.769Z,101812.13
2018-09-17T06:23:38.513Z,101802.73
2018-09-17T06:26:07.413Z,101812.29
2018-09-17T06:28:35.808Z,101816.92
2018-09-17T06:31:04.104Z,101809.36
2018-09-17T06:33:31.838Z,101806.69
2018-09-17T06:36:01.141Z,101817.38
2018-09-17T06:38:28.887Z,101819.05
2018-09-17T06:40:57.783Z,101822.37
2018-09-17T06:43:26.101Z,101820.20
2018-09-17T06:45:53.841Z,101815.45
2018-09-17T06:48:22.790Z,101813.21
2018-09-17T06:50:51.323Z,101806.45
2018-09-17T06:53:19.079Z,101804.02
2018-09-17T06:55:48.017Z,101808.41
2018-09-17T06:58:16.321Z,101811.73
2018-09-17T07:00:44.070Z,101809.73
2018-09-17T07:03:12.973Z,101803.73
2018-09-17T07:05:41.306Z,101809.09
2018-09-17T07:08:09.080Z,101807.36
2018-09-17T07:10:38.000Z,101800.48
2018-09-17T07:13:05.746Z,101800.03
2018-09-17T07:15:34.681Z,101787.29
2018-09-17T07:18:03.033Z,101785.06
2018-09-17T07:20:31.326Z,101777.70
2018-09-17T07:22:59.683Z,101787.05
2018-09-17T07:25:28.025Z,101775.41
2018-09-17T07:27:56.348Z,101772.04
2018-09-17T07:30:24.109Z,101769.47
2018-09-17T07:32:53.025Z,101781.97
2018-09-17T07:35:21.355Z,101781.07
2018-09-17T07:37:49.096Z,101780.91
2018-09-17T07:40:17.414Z,101790.46
2018-09-17T07:42:46.730Z,101782.63
2018-09-17T07:45:15.020Z,101776.41
2018-09-17T07:47:43.352Z,101788.91
2018-09-17T07:50:11.728Z,101778.16
2018-09-17T07:52:40.071Z,101778.20
2018-09-17T07:55:08.725Z,101780.17
2018-09-17T07:57:37.839Z,101797.41
2018-09-17T08:00:05.655Z,101783.69
2018-09-17T08:02:34.496Z,101771.84
2018-09-17T08:05:22.052Z,101772.03
2018-09-17T08:07:51.251Z,101768.95
2018-09-17T08:10:19.543Z,101754.55
2018-09-17T08:12:47.874Z,101747.75
2018-09-17T08:15:16.236Z,101753.86
2018-09-17T08:17:44.551Z,101754.47
2018-09-17T08:20:12.916Z,101771.86
2018-09-17T08:22:40.645Z,101757.71
2018-09-17T08:25:09.559Z,101769.84
2018-09-17T08:27:37.880Z,101772.87
2018-09-17T08:30:06.200Z,101764.70
2018-09-17T08:32:34.522Z,101775.78
2018-09-17T08:35:02.314Z,101761.19
2018-09-17T08:37:31.285Z,101757.58
2018-09-17T08:39:59.681Z,101768.95
2018-09-17T08:42:28.057Z,101770.63
2018-09-17T08:44:55.795Z,101770.05
2018-09-17T08:47:24.728Z,101770.37
2018-09-17T08:49:53.140Z,101779.28
2018-09-17T08:52:21.520Z,101775.44
2018-09-17T08:54:49.809Z,101765.75
2018-09-17T08:57:18.212Z,101770.02
2018-09-17T08:59:46.600Z,101761.05
2018-09-17T09:02:14.381Z,101771.38
2018-09-17T09:04:42.702Z,101766.56
2018-09-17T09:07:11.025Z,101762.56
2018-09-17T09:09:39.925Z,101755.27
2018-09-17T09:12:07.693Z,101754.04
2018-09-17T09:14:36.600Z,101782.23
2018-09-17T09:17:04.921Z,101758.02
2018-09-17T09:19:33.259Z,101765.80
2018-09-17T09:22:00.983Z,101749.63
2018-09-17T09:24:29.880Z,101751.50
2018-09-17T09:26:58.202Z,101742.77
2018-09-17T09:29:26.537Z,101749.83
2018-09-17T09:31:54.847Z,101737.84
2018-09-17T09:34:23.172Z,101731.47
2018-09-17T09:36:51.491Z,101734.69
2018-09-17T09:39:19.225Z,101732.66
2018-09-17T09:41:47.544Z,101731.59
2018-09-17T09:44:15.863Z,101738.08
2018-09-17T09:46:44.773Z,101722.95
2018-09-17T09:49:13.099Z,101723.65
2018-09-17T09:51:40.847Z,101725.09
2018-09-17T09:54:09.760Z,101734.34
2018-09-17T09:56:37.497Z,101742.02
2018-09-17T09:59:06.401Z,101741.87
2018-09-17T10:01:34.642Z,101750.18
2018-09-17T10:04:03.097Z,101741.85
2018-09-17T10:06:31.421Z,101747.58
2018-09-17T10:08:59.741Z,101754.99
2018-09-17T10:11:29.322Z,101747.90
2018-09-17T10:13:59.466Z,101754.15
2018-09-17T10:16:27.796Z,101773.42
2018-09-17T10:19:01.065Z,101751.77
2018-09-17T10:21:30.006Z,101759.77
2018-09-17T10:23:58.338Z,101751.65
2018-09-17T10:26:26.067Z,101766.67
2018-09-17T10:28:54.390Z,101754.53
2018-09-17T10:31:23.303Z,101760.55
2018-09-17T10:33:51.036Z,101765.34
2018-09-17T10:36:19.936Z,101755.80
2018-09-17T10:38:48.257Z,101753.96
2018-09-17T10:41:16.577Z,101751.48
2018-09-17T10:43:44.898Z,101745.66
2018-09-17T10:46:12.637Z,101744.30
2018-09-17T10:48:40.966Z,101742.66
2018-09-17T10:51:09.290Z,101745.17
2018-09-17T10:53:37.628Z,101737.80
2018-09-17T10:56:06.546Z,101748.96
2018-09-17T10:58:34.861Z,101748.06
2018-09-17T11:01:03.196Z,101741.67
2018-09-17T11:03:31.523Z,101734.10
2018-09-17T11:05:59.841Z,101753.38
2018-09-17T11:08:28.163Z,101752.77
2018-09-17T11:10:56.496Z,101736.90
2018-09-17T11:13:24.820Z,101741.45
2018-09-17T11:15:52.595Z,101737.23
2018-09-17T11:18:20.920Z,101749.63
2018-09-17T11:20:49.833Z,101754.34
2018-09-17T11:23:18.182Z,101749.16
2018-09-17T11:25:46.502Z,101754.88
2018-09-17T11:28:14.825Z,101741.81
2018-09-17T11:30:42.561Z,101747.98
2018-09-17T11:33:10.881Z,101745.86
2018-09-17T11:35:39.791Z,101745.92
2018-09-17T11:38:08.106Z,101737.97
2018-09-17T11:40:36.425Z,101739.77
2018-09-17T11:43:04.747Z,101736.19
2018-09-17T11:45:33.075Z,101741.47
2018-09-17T11:48:01.388Z,101739.86
2018-09-17T11:50:29.130Z,101734.75
2018-09-17T11:52:58.033Z,101740.83
2018-09-17T11:55:25.832Z,101742.20
2018-09-17T11:57:54.674Z,101734.23
2018-09-17T12:00:22.415Z,101753.59
2018-09-17T12:02:50.755Z,101739.05
2018-09-17T12:05:19.652Z,101740.50
2018-09-17T12:07:47.389Z,101739.03
2018-09-17T12:10:16.309Z,101734.23
2018-09-17T12:12:44.631Z,101730.26
2018-09-17T12:15:12.951Z,101736.30
2018-09-17T12:17:40.757Z,101732.77
2018-09-17T12:20:09.667Z,101739.95
2018-09-17T12:22:37.999Z,101735.47
2018-09-17T12:25:05.743Z,101725.65
2018-09-17T12:27:34.644Z,101734.31
2018-09-17T12:30:02.963Z,101729.70
2018-09-17T12:32:31.280Z,101727.78
2018-09-17T12:34:59.596Z,101731.90
2018-09-17T12:37:27.349Z,101729.30
2018-09-17T12:39:56.249Z,101718.35
2018-09-17T12:42:24.579Z,101722.61
2018-09-17T12:44:52.951Z,101736.53
2018-09-17T12:47:21.225Z,101728.78
2018-09-17T12:49:48.963Z,101719.22
2018-09-17T12:52:17.945Z,101719.30
2018-09-17T12:54:46.273Z,101723.16
2018-09-17T12:57:14.625Z,101716.33
2018-09-17T12:59:42.931Z,101721.06
2018-09-17T13:02:10.688Z,101732.41
2018-09-17T13:04:39.599Z,101729.38
2018-09-17T13:07:07.348Z,101719.48
2018-09-17T13:09:35.670Z,101732.17
2018-09-17T13:12:04.585Z,101732.03
2018-09-17T13:14:32.326Z,101741.27
2018-09-17T13:17:01.266Z,101736.55
2018-09-17T13:19:29.628Z,101741.27
2018-09-17T13:21:57.960Z,101727.86
2018-09-17T13:24:26.288Z,101730.41
2018-09-17T13:26:54.047Z,101730.28
2018-09-17T13:29:22.946Z,101729.92
2018-09-17T13:31:51.514Z,101729.53
2018-09-17T13:34:19.644Z,101729.34
2018-09-17T13:36:47.989Z,101732.22
2018-09-17T13:39:16.792Z,101727.30
2018-09-17T13:41:45.438Z,101725.61
2018-09-17T13:44:13.792Z,101731.05
2018-09-17T13:46:42.158Z,101730.40
2018-09-17T13:49:10.447Z,101728.94
2018-09-17T13:51:39.156Z,101731.45
2018-09-17T13:54:07.824Z,101733.77
2018-09-17T13:56:38.417Z,101734.14
2018-09-17T13:59:06.759Z,101735.63
2018-09-17T14:01:35.528Z,101739.47
2018-09-17T14:04:03.868Z,101736.05
2018-09-17T14:06:32.866Z,101737.00
2018-09-17T14:09:00.606Z,101735.50
2018-09-17T14:11:29.511Z,101736.34
2018-09-17T14:13:57.849Z,101735.27
2018-09-17T14:16:26.182Z,101741.45
2018-09-17T14:18:54.518Z,101739.64
2018-09-17T14:21:22.880Z,101746.81
2018-09-17T14:23:51.462Z,101745.85
2018-09-17T14:26:20.551Z,101748.83
2018-09-17T14:28:48.730Z,101747.65
2018-09-17T14:31:17.047Z,101752.60
2018-09-17T14:33:44.798Z,101742.30
2018-09-17T14:36:13.707Z,101740.09
2018-09-17T14:38:42.043Z,101744.81
2018-09-17T14:41:10.375Z,101741.11
2018-09-17T14:43:38.214Z,101736.23
2018-09-17T14:46:07.047Z,101732.88
2018-09-17T14:48:35.359Z,101736.75
2018-09-17T14:51:03.125Z,101739.70
2018-09-17T14:53:32.136Z,101738.22
2018-09-17T14:56:00.281Z,101742.34
2018-09-17T14:58:29.167Z,101748.75
2018-09-17T15:00:57.513Z,101747.92
2018-09-17T15:03:25.811Z,101750.61
2018-09-17T15:05:54.136Z,101751.91
2018-09-17T15:08:22.561Z,101753.69
2018-09-17T15:10:50.256Z,101750.79
2018-09-17T15:13:19.161Z,101749.05
2018-09-17T15:15:47.437Z,101750.08
2018-09-17T15:18:15.310Z,101760.36
2018-09-17T15:20:44.200Z,101759.37
2018-09-17T15:23:12.548Z,101753.92
2018-09-17T15:25:40.870Z,101751.79
2018-09-17T15:28:09.210Z,101755.27
2018-09-17T15:30:36.925Z,101753.11
2018-09-17T15:33:05.239Z,101753.08
2018-09-17T15:35:34.366Z,101757.11
2018-09-17T15:38:01.922Z,101750.95
2018-09-17T15:40:30.299Z,101754.16
2018-09-17T15:42:59.095Z,101759.81
2018-09-17T15:45:27.415Z,101761.50
2018-09-17T15:47:55.725Z,101762.91
2018-09-17T15:50:24.044Z,101763.86
2018-09-17T15:52:52.360Z,101765.11
2018-09-17T15:55:20.666Z,101769.55
2018-09-17T15:57:49.030Z,101766.92
2018-09-17T16:00:17.521Z,101770.01
2018-09-17T16:02:45.617Z,101772.55
2018-09-17T16:05:13.393Z,101768.87
2018-09-17T16:07:42.298Z,101771.97
2018-09-17T16:10:10.640Z,101768.84
2018-09-17T16:12:38.989Z,101769.25
2018-09-17T16:15:07.361Z,101768.86
2018-09-17T16:17:35.100Z,101768.61
2018-09-17T16:20:04.136Z,101772.02
2018-09-17T16:22:32.365Z,101773.02
2018-09-17T16:25:00.546Z,101764.53
2018-09-17T16:27:29.500Z,101770.66
2018-09-17T16:29:57.256Z,101771.33
2018-09-17T16:32:25.825Z,101773.92
2018-09-17T16:34:54.887Z,101772.87
2018-09-17T16:37:23.229Z,101775.15
2018-09-17T16:39:51.571Z,101776.55
2018-09-17T16:42:19.934Z,101778.80
2018-09-17T16:44:55.645Z,101780.41
2018-09-17T16:47:24.580Z,101784.28
2018-09-17T16:49:52.934Z,101779.36
2018-09-17T16:52:21.282Z,101783.92
2018-09-17T16:54:53.579Z,101786.64
2018-09-17T16:57:22.045Z,101792.98
2018-09-17T16:59:50.425Z,101791.84
2018-09-17T17:02:18.753Z,101793.84
2018-09-17T17:04:46.564Z,101798.12
2018-09-17T17:07:20.096Z,101792.23
2018-09-17T17:09:49.077Z,101796.04
2018-09-17T17:12:15.309Z,101802.09
2018-09-17T17:17:51.007Z,101791.21
2018-09-17T17:20:09.195Z,101799.59
2018-09-17T17:22:37.811Z,101799.81
2018-09-17T17:25:07.207Z,101805.12
2018-09-17T17:27:36.431Z,101809.18
2018-09-17T17:30:04.898Z,101807.78
2018-09-17T17:32:33.232Z,101812.05
2018-09-17T17:35:01.559Z,101810.91
2018-09-17T17:37:30.275Z,101809.55
2018-09-17T17:39:58.169Z,101809.25
2018-09-17T17:42:27.732Z,101807.66
2018-09-17T17:44:55.713Z,101807.06
2018-09-17T17:47:24.318Z,101805.75
2018-09-17T17:49:52.996Z,101804.36
2018-09-17T17:52:21.328Z,101800.92
2018-09-17T17:54:49.641Z,101804.26
2018-09-17T17:57:17.439Z,101801.75
2018-09-17T17:59:46.332Z,101803.30
2018-09-17T18:02:14.102Z,101800.01
2018-09-17T18:04:43.023Z,101802.08
2018-09-17T18:07:10.978Z,101801.14
2018-09-17T18:09:39.757Z,101795.38
2018-09-17T18:12:08.172Z,101797.44
2018-09-17T18:14:36.514Z,101804.23
2018-09-17T18:17:04.282Z,101808.77
2018-09-17T18:19:33.210Z,101808.95
2018-09-17T18:22:01.564Z,101811.77
2018-09-17T18:24:29.351Z,101820.03
2018-09-17T18:26:58.381Z,101820.59
2018-09-17T18:29:27.694Z,101818.82
2018-09-17T18:31:56.044Z,101823.09
2018-09-17T18:34:24.160Z,101819.38
2018-09-17T18:36:52.548Z,101816.58
2018-09-17T18:39:21.495Z,101810.53
2018-09-17T18:41:49.763Z,101811.23
2018-09-17T18:44:18.124Z,101806.60
2018-09-17T18:46:46.468Z,101798.95
2018-09-17T18:49:14.803Z,101794.19
2018-09-17T18:51:43.144Z,101798.36
2018-09-17T18:54:11.509Z,101797.38
2018-09-17T18:56:39.293Z,101796.36
2018-09-17T18:59:08.206Z,101795.20
2018-09-17T19:01:36.540Z,101796.49
2018-09-17T19:04:04.384Z,101799.30
2018-09-17T19:06:32.622Z,101796.75
2018-09-17T19:09:01.631Z,101797.55
2018-09-17T19:11:31.141Z,101796.04
2018-09-17T19:13:58.455Z,101797.97
2018-09-17T19:16:26.790Z,101801.12
2018-09-17T19:18:55.108Z,101799.19
2018-09-17T19:21:22.898Z,101801.91
2018-09-17T19:23:51.833Z,101802.30
2018-09-17T19:26:20.241Z,101802.69
2018-09-17T19:28:50.618Z,101801.95
2018-09-17T19:31:18.739Z,101804.48
2018-09-17T19:33:46.555Z,101802.92
2018-09-17T19:36:15.492Z,101794.83
2018-09-17T19:38:44.547Z,101795.34
2018-09-17T19:41:12.880Z,101796.09
2018-09-17T19:43:40.686Z,101796.28
2018-09-17T19:46:11.960Z,101801.77
2018-09-17T19:48:40.663Z,101802.70
2018-09-17T19:51:08.683Z,101803.44
2018-09-17T19:53:37.558Z,101800.49
2018-09-17T19:56:05.938Z,101798.95
2018-09-17T19:58:39.159Z,101798.11
2018-09-17T20:01:07.517Z,101802.28
2018-09-17T20:03:35.851Z,101799.05
2018-09-17T20:06:03.606Z,101797.56
2018-09-17T20:08:31.940Z,101804.00
2018-09-17T20:11:00.868Z,101805.20
2018-09-17T20:13:29.197Z,101811.20
2018-09-17T20:15:57.549Z,101810.80
2018-09-17T20:18:25.992Z,101799.14
2018-09-17T20:20:54.327Z,101803.63
2018-09-17T20:23:22.659Z,101804.41
2018-09-17T20:25:50.983Z,101806.83
2018-09-17T20:28:19.311Z,101809.13
2018-09-17T20:30:47.911Z,101806.87
2018-09-17T20:33:15.665Z,101808.03
2018-09-17T20:35:43.781Z,101806.06
2018-09-17T20:38:12.747Z,101800.09
2018-09-17T20:40:41.064Z,101795.80
2018-09-17T20:43:09.434Z,101797.20
2018-09-17T20:45:37.774Z,101797.36
2018-09-17T20:48:06.306Z,101800.91
2018-09-17T20:50:34.051Z,101801.61
2018-09-17T20:53:03.239Z,101803.05
2018-09-17T20:55:34.448Z,101807.18
2018-09-17T20:58:03.105Z,101804.28
2018-09-17T21:00:30.942Z,101806.14
2018-09-17T21:02:59.893Z,101805.50
2018-09-17T21:05:29.157Z,101801.03
2018-09-17T21:07:56.909Z,101801.34
2018-09-17T21:10:25.858Z,101801.92
2018-09-17T21:12:54.242Z,101806.27
2018-09-17T21:15:23.605Z,101800.88
2018-09-17T21:17:51.707Z,101799.13
2018-09-17T21:20:20.044Z,101795.60
2018-09-17T21:22:48.456Z,101793.86
2018-09-17T21:25:16.823Z,101799.00
2018-09-17T21:27:45.465Z,101797.30
2018-09-17T21:30:14.164Z,101796.46
2018-09-17T21:32:41.359Z,101797.41
2018-09-17T21:35:09.776Z,101792.34
2018-09-17T21:37:40.005Z,101795.64
2018-09-17T21:40:06.405Z,101801.36
2018-09-17T21:42:35.703Z,101803.29
2018-09-17T21:45:04.025Z,101806.86
2018-09-17T21:47:31.781Z,101797.88
2018-09-17T21:50:00.685Z,101793.19
2018-09-17T21:52:29.027Z,101796.84
2018-09-17T21:54:57.344Z,101796.91
2018-09-17T21:57:25.668Z,101789.19
2018-09-17T21:59:53.998Z,101783.19
2018-09-17T22:02:22.378Z,101780.66
2018-09-17T22:04:50.076Z,101784.77
2018-09-17T22:07:18.994Z,101787.61
2018-09-17T22:09:47.309Z,101781.42
2018-09-17T22:12:21.842Z,101781.72
2018-09-17T22:14:50.194Z,101780.77
2018-09-17T22:17:18.521Z,101784.75
2018-09-17T22:19:46.888Z,101788.84
2018-09-17T22:22:15.148Z,101784.22
2018-09-17T22:24:42.942Z,101779.77
2018-09-17T22:27:11.214Z,101784.28
2018-09-17T22:29:39.528Z,101781.05
2018-09-17T22:32:08.431Z,101781.08
2018-09-17T22:34:36.182Z,101782.20
2018-09-17T22:37:05.090Z,101787.10
2018-09-17T22:39:33.403Z,101783.13
2018-09-17T22:42:01.760Z,101784.84
2018-09-17T22:44:29.452Z,101793.17
2018-09-17T22:46:58.344Z,101793.33
2018-09-17T22:49:26.692Z,101795.00
2018-09-17T22:51:54.423Z,101800.70
2018-09-17T22:54:23.314Z,101797.79
2018-09-17T22:56:51.058Z,101791.44
2018-09-17T22:59:19.953Z,101790.55
2018-09-17T23:01:47.684Z,101787.72
2018-09-17T23:04:16.589Z,101791.22
2018-09-17T23:06:44.345Z,101783.66
2018-09-17T23:09:13.238Z,101788.08
2018-09-17T23:11:41.557Z,101783.72
2018-09-17T23:14:09.871Z,101786.16
2018-09-17T23:16:38.196Z,101785.77
2018-09-17T23:19:05.934Z,101784.88
2018-09-17T23:21:34.250Z,101779.70
2018-09-17T23:24:02.576Z,101779.52
2018-09-17T23:26:31.479Z,101778.33
2018-09-17T23:28:59.794Z,101778.56
2018-09-17T23:31:27.536Z,101781.48
2018-09-17T23:33:55.869Z,101778.14
2018-09-17T23:36:24.209Z,101785.25
2018-09-17T23:38:52.521Z,101784.44
2018-09-17T23:41:21.430Z,101787.58
2018-09-17T23:43:49.177Z,101789.23
2018-09-17T23:46:18.099Z,101789.90
2018-09-17T23:48:46.429Z,101786.81
2018-09-17T23:51:14.752Z,101787.58
2018-09-17T23:53:42.509Z,101785.27
2018-09-17T23:56:10.941Z,101788.36
2018-09-17T23:58:39.160Z,101787.72
